sensor_id;sensor_type;location;lat;lon;timestamp;P1;durP1;ratioP1;P2;durP2;ratioP2
7485;SDS011;3784;54.098;9.998;2023-06-24T00:02:23;325.30;;;311.60;;
7485;SDS011;3784;54.098;9.998;2023-06-24T00:04:50;318.83;;;304.77;;
7485;SDS011;3784;54.098;9.998;2023-06-24T00:07:18;333.83;;;319.77;;
7485;SDS011;3784;54.098;9.998;2023-06-24T00:09:45;315.53;;;302.20;;
7485;SDS011;3784;54.098;9.998;2023-06-24T00:12:12;308.77;;;295.73;;
7485;SDS011;3784;54.098;9.998;2023-06-24T00:14:45;308.87;;;295.77;;
7485;SDS011;3784;54.098;9.998;2023-06-24T00:17:12;309.43;;;296.63;;
7485;SDS011;3784;54.098;9.998;2023-06-24T00:19:39;305.70;;;292.53;;
7485;SDS011;3784;54.098;9.998;2023-06-24T00:22:05;280.63;;;268.73;;
7485;SDS011;3784;54.098;9.998;2023-06-24T00:24:32;295.27;;;282.87;;
7485;SDS011;3784;54.098;9.998;2023-06-24T00:26:59;295.53;;;282.90;;
7485;SDS011;3784;54.098;9.998;2023-06-24T00:29:25;292.87;;;280.37;;
7485;SDS011;3784;54.098;9.998;2023-06-24T00:31:52;300.23;;;287.57;;
7485;SDS011;3784;54.098;9.998;2023-06-24T00:34:18;280.90;;;269.13;;
7485;SDS011;3784;54.098;9.998;2023-06-24T00:36:49;288.20;;;276.20;;
7485;SDS011;3784;54.098;9.998;2023-06-24T00:39:16;277.50;;;265.70;;
7485;SDS011;3784;54.098;9.998;2023-06-24T00:41:43;265.13;;;253.90;;
7485;SDS011;3784;54.098;9.998;2023-06-24T00:44:09;255.27;;;244.53;;
7485;SDS011;3784;54.098;9.998;2023-06-24T00:46:36;270.07;;;258.63;;
7485;SDS011;3784;54.098;9.998;2023-06-24T00:49:03;265.70;;;254.57;;
7485;SDS011;3784;54.098;9.998;2023-06-24T00:51:30;283.20;;;271.23;;
7485;SDS011;3784;54.098;9.998;2023-06-24T00:53:57;309.43;;;296.47;;
7485;SDS011;3784;54.098;9.998;2023-06-24T00:56:34;291.80;;;279.40;;
7485;SDS011;3784;54.098;9.998;2023-06-24T00:59:02;277.07;;;265.67;;
7485;SDS011;3784;54.098;9.998;2023-06-24T01:01:35;306.70;;;293.60;;
7485;SDS011;3784;54.098;9.998;2023-06-24T01:04:02;267.13;;;255.73;;
7485;SDS011;3784;54.098;9.998;2023-06-24T01:06:29;278.63;;;266.70;;
7485;SDS011;3784;54.098;9.998;2023-06-24T01:08:56;276.60;;;265.07;;
7485;SDS011;3784;54.098;9.998;2023-06-24T01:11:23;301.33;;;288.27;;
7485;SDS011;3784;54.098;9.998;2023-06-24T01:13:50;277.00;;;265.33;;
7485;SDS011;3784;54.098;9.998;2023-06-24T01:16:21;292.57;;;280.37;;
7485;SDS011;3784;54.098;9.998;2023-06-24T01:18:54;262.17;;;250.47;;
7485;SDS011;3784;54.098;9.998;2023-06-24T01:21:31;261.30;;;250.37;;
7485;SDS011;3784;54.098;9.998;2023-06-24T01:27:45;251.97;;;241.47;;
7485;SDS011;3784;54.098;9.998;2023-06-24T01:30:34;261.13;;;250.13;;
7485;SDS011;3784;54.098;9.998;2023-06-24T01:33:09;253.87;;;242.97;;
7485;SDS011;3784;54.098;9.998;2023-06-24T01:35:36;221.20;;;211.53;;
7485;SDS011;3784;54.098;9.998;2023-06-24T01:38:06;226.07;;;215.97;;
7485;SDS011;3784;54.098;9.998;2023-06-24T01:40:36;220.63;;;211.03;;
7485;SDS011;3784;54.098;9.998;2023-06-24T01:43:07;234.77;;;224.67;;
7485;SDS011;3784;54.098;9.998;2023-06-24T01:45:36;198.90;;;189.83;;
7485;SDS011;3784;54.098;9.998;2023-06-24T01:48:12;116.77;;;111.10;;
7485;SDS011;3784;54.098;9.998;2023-06-24T01:50:48;120.20;;;114.50;;
7485;SDS011;3784;54.098;9.998;2023-06-24T01:53:16;108.33;;;102.80;;
7485;SDS011;3784;54.098;9.998;2023-06-24T01:55:44;100.27;;;95.53;;
7485;SDS011;3784;54.098;9.998;2023-06-24T01:58:11;91.43;;;86.80;;
7485;SDS011;3784;54.098;9.998;2023-06-24T02:00:40;77.50;;;73.53;;
7485;SDS011;3784;54.098;9.998;2023-06-24T02:03:06;65.47;;;62.07;;
7485;SDS011;3784;54.098;9.998;2023-06-24T02:05:33;78.60;;;74.40;;
7485;SDS011;3784;54.098;9.998;2023-06-24T02:08:00;68.23;;;64.67;;
7485;SDS011;3784;54.098;9.998;2023-06-24T02:10:28;66.23;;;62.70;;
7485;SDS011;3784;54.098;9.998;2023-06-24T02:12:55;59.57;;;56.27;;
7485;SDS011;3784;54.098;9.998;2023-06-24T02:15:22;63.47;;;59.97;;
7485;SDS011;3784;54.098;9.998;2023-06-24T02:17:50;76.93;;;72.57;;
7485;SDS011;3784;54.098;9.998;2023-06-24T02:20:17;73.83;;;69.70;;
7485;SDS011;3784;54.098;9.998;2023-06-24T02:22:45;64.07;;;60.67;;
7485;SDS011;3784;54.098;9.998;2023-06-24T02:25:12;69.03;;;65.17;;
7485;SDS011;3784;54.098;9.998;2023-06-24T02:27:39;49.97;;;47.20;;
7485;SDS011;3784;54.098;9.998;2023-06-24T02:30:06;47.23;;;44.37;;
7485;SDS011;3784;54.098;9.998;2023-06-24T02:32:34;46.47;;;43.70;;
7485;SDS011;3784;54.098;9.998;2023-06-24T02:35:02;41.93;;;39.30;;
7485;SDS011;3784;54.098;9.998;2023-06-24T02:37:28;40.83;;;38.10;;
7485;SDS011;3784;54.098;9.998;2023-06-24T02:39:55;46.37;;;43.73;;
7485;SDS011;3784;54.098;9.998;2023-06-24T02:42:22;36.67;;;34.33;;
7485;SDS011;3784;54.098;9.998;2023-06-24T02:44:48;40.97;;;38.37;;
7485;SDS011;3784;54.098;9.998;2023-06-24T02:47:15;52.93;;;49.83;;
7485;SDS011;3784;54.098;9.998;2023-06-24T02:49:42;67.40;;;63.70;;
7485;SDS011;3784;54.098;9.998;2023-06-24T02:52:12;73.33;;;69.57;;
7485;SDS011;3784;54.098;9.998;2023-06-24T02:54:39;82.20;;;78.10;;
7485;SDS011;3784;54.098;9.998;2023-06-24T02:57:06;92.20;;;88.00;;
7485;SDS011;3784;54.098;9.998;2023-06-24T02:59:34;104.33;;;99.53;;
7485;SDS011;3784;54.098;9.998;2023-06-24T03:02:01;113.17;;;107.67;;
7485;SDS011;3784;54.098;9.998;2023-06-24T03:04:29;126.70;;;120.93;;
7485;SDS011;3784;54.098;9.998;2023-06-24T03:06:56;123.30;;;117.77;;
7485;SDS011;3784;54.098;9.998;2023-06-24T03:09:32;133.80;;;127.97;;
7485;SDS011;3784;54.098;9.998;2023-06-24T03:12:00;150.10;;;143.60;;
7485;SDS011;3784;54.098;9.998;2023-06-24T03:14:26;143.63;;;137.00;;
7485;SDS011;3784;54.098;9.998;2023-06-24T03:16:53;159.13;;;151.67;;
7485;SDS011;3784;54.098;9.998;2023-06-24T03:19:19;161.57;;;154.50;;
7485;SDS011;3784;54.098;9.998;2023-06-24T03:21:45;164.20;;;156.73;;
7485;SDS011;3784;54.098;9.998;2023-06-24T03:24:12;167.33;;;160.13;;
7485;SDS011;3784;54.098;9.998;2023-06-24T03:26:38;161.27;;;154.30;;
7485;SDS011;3784;54.098;9.998;2023-06-24T03:29:08;159.30;;;152.20;;
7485;SDS011;3784;54.098;9.998;2023-06-24T03:31:35;155.93;;;149.13;;
7485;SDS011;3784;54.098;9.998;2023-06-24T03:34:01;140.43;;;134.13;;
7485;SDS011;3784;54.098;9.998;2023-06-24T03:36:28;133.83;;;127.83;;
7485;SDS011;3784;54.098;9.998;2023-06-24T03:38:54;135.87;;;129.47;;
7485;SDS011;3784;54.098;9.998;2023-06-24T03:41:20;135.80;;;129.63;;
7485;SDS011;3784;54.098;9.998;2023-06-24T03:43:47;143.03;;;136.57;;
7485;SDS011;3784;54.098;9.998;2023-06-24T03:46:13;131.73;;;125.90;;
7485;SDS011;3784;54.098;9.998;2023-06-24T03:48:40;134.80;;;128.60;;
7485;SDS011;3784;54.098;9.998;2023-06-24T03:51:06;133.33;;;127.30;;
7485;SDS011;3784;54.098;9.998;2023-06-24T03:53:33;130.13;;;124.13;;
7485;SDS011;3784;54.098;9.998;2023-06-24T03:55:59;121.93;;;116.17;;
7485;SDS011;3784;54.098;9.998;2023-06-24T03:58:27;132.77;;;126.80;;
7485;SDS011;3784;54.098;9.998;2023-06-24T04:00:53;127.90;;;122.03;;
7485;SDS011;3784;54.098;9.998;2023-06-24T04:03:23;164.07;;;156.97;;
7485;SDS011;3784;54.098;9.998;2023-06-24T04:05:55;153.53;;;146.73;;
7485;SDS011;3784;54.098;9.998;2023-06-24T04:08:22;160.90;;;153.63;;
7485;SDS011;3784;54.098;9.998;2023-06-24T04:10:51;156.53;;;149.53;;
7485;SDS011;3784;54.098;9.998;2023-06-24T04:13:17;160.00;;;152.87;;
7485;SDS011;3784;54.098;9.998;2023-06-24T04:15:44;158.47;;;151.57;;
7485;SDS011;3784;54.098;9.998;2023-06-24T04:18:10;150.70;;;143.93;;
7485;SDS011;3784;54.098;9.998;2023-06-24T04:20:37;159.47;;;152.30;;
7485;SDS011;3784;54.098;9.998;2023-06-24T04:23:04;141.83;;;135.30;;
7485;SDS011;3784;54.098;9.998;2023-06-24T04:25:31;142.73;;;136.17;;
7485;SDS011;3784;54.098;9.998;2023-06-24T04:27:59;168.83;;;161.50;;
7485;SDS011;3784;54.098;9.998;2023-06-24T04:30:26;160.43;;;153.03;;
7485;SDS011;3784;54.098;9.998;2023-06-24T04:32:52;166.20;;;159.03;;
7485;SDS011;3784;54.098;9.998;2023-06-24T04:35:19;152.23;;;145.43;;
7485;SDS011;3784;54.098;9.998;2023-06-24T04:37:45;181.17;;;173.03;;
7485;SDS011;3784;54.098;9.998;2023-06-24T04:40:11;179.63;;;171.60;;
7485;SDS011;3784;54.098;9.998;2023-06-24T04:42:39;192.37;;;183.97;;
7485;SDS011;3784;54.098;9.998;2023-06-24T04:45:06;179.90;;;171.90;;
7485;SDS011;3784;54.098;9.998;2023-06-24T04:47:32;211.77;;;202.50;;
7485;SDS011;3784;54.098;9.998;2023-06-24T04:49:59;196.97;;;188.43;;
7485;SDS011;3784;54.098;9.998;2023-06-24T04:52:25;244.73;;;234.33;;
7485;SDS011;3784;54.098;9.998;2023-06-24T04:54:51;229.27;;;219.27;;
7485;SDS011;3784;54.098;9.998;2023-06-24T04:57:28;230.80;;;221.00;;
7485;SDS011;3784;54.098;9.998;2023-06-24T04:59:55;254.33;;;243.73;;
7485;SDS011;3784;54.098;9.998;2023-06-24T05:02:23;242.87;;;232.77;;
7485;SDS011;3784;54.098;9.998;2023-06-24T05:04:49;263.57;;;252.37;;
7485;SDS011;3784;54.098;9.998;2023-06-24T05:07:17;255.57;;;244.87;;
7485;SDS011;3784;54.098;9.998;2023-06-24T05:09:47;259.27;;;248.33;;
7485;SDS011;3784;54.098;9.998;2023-06-24T05:12:14;264.37;;;253.30;;
7485;SDS011;3784;54.098;9.998;2023-06-24T05:14:40;265.97;;;254.63;;
7485;SDS011;3784;54.098;9.998;2023-06-24T05:17:07;274.17;;;262.43;;
7485;SDS011;3784;54.098;9.998;2023-06-24T05:19:33;290.90;;;278.60;;
7485;SDS011;3784;54.098;9.998;2023-06-24T05:22:00;326.47;;;312.67;;
7485;SDS011;3784;54.098;9.998;2023-06-24T05:24:26;286.97;;;274.87;;
7485;SDS011;3784;54.098;9.998;2023-06-24T05:26:53;315.00;;;301.70;;
7485;SDS011;3784;54.098;9.998;2023-06-24T05:29:19;366.30;;;350.63;;
7485;SDS011;3784;54.098;9.998;2023-06-24T05:31:45;388.80;;;371.40;;
7485;SDS011;3784;54.098;9.998;2023-06-24T05:34:12;447.20;;;427.33;;
7485;SDS011;3784;54.098;9.998;2023-06-24T05:36:39;474.10;;;452.67;;
7485;SDS011;3784;54.098;9.998;2023-06-24T05:39:05;508.57;;;485.23;;
7485;SDS011;3784;54.098;9.998;2023-06-24T05:41:34;489.87;;;467.87;;
7485;SDS011;3784;54.098;9.998;2023-06-24T05:44:05;474.47;;;453.03;;
7485;SDS011;3784;54.098;9.998;2023-06-24T05:46:33;485.43;;;463.40;;
7485;SDS011;3784;54.098;9.998;2023-06-24T05:49:00;485.43;;;463.67;;
7485;SDS011;3784;54.098;9.998;2023-06-24T05:51:26;491.90;;;470.00;;
7485;SDS011;3784;54.098;9.998;2023-06-24T05:53:52;482.10;;;460.73;;
7485;SDS011;3784;54.098;9.998;2023-06-24T05:56:19;459.77;;;439.13;;
7485;SDS011;3784;54.098;9.998;2023-06-24T05:58:47;448.47;;;428.70;;
7485;SDS011;3784;54.098;9.998;2023-06-24T06:01:13;412.43;;;394.47;;
7485;SDS011;3784;54.098;9.998;2023-06-24T06:03:40;418.83;;;400.77;;
7485;SDS011;3784;54.098;9.998;2023-06-24T06:06:06;407.03;;;389.20;;
7485;SDS011;3784;54.098;9.998;2023-06-24T06:08:33;428.70;;;410.30;;
7485;SDS011;3784;54.098;9.998;2023-06-24T06:11:00;419.90;;;401.73;;
7485;SDS011;3784;54.098;9.998;2023-06-24T06:13:28;438.27;;;419.07;;
7485;SDS011;3784;54.098;9.998;2023-06-24T06:15:58;417.07;;;399.13;;
7485;SDS011;3784;54.098;9.998;2023-06-24T06:18:24;402.87;;;385.53;;
7485;SDS011;3784;54.098;9.998;2023-06-24T06:20:51;416.20;;;398.30;;
7485;SDS011;3784;54.098;9.998;2023-06-24T06:23:17;426.57;;;407.60;;
7485;SDS011;3784;54.098;9.998;2023-06-24T06:25:44;374.90;;;358.97;;
7485;SDS011;3784;54.098;9.998;2023-06-24T06:28:14;360.50;;;345.10;;
7485;SDS011;3784;54.098;9.998;2023-06-24T06:30:40;357.37;;;342.10;;
7485;SDS011;3784;54.098;9.998;2023-06-24T06:33:06;363.83;;;348.20;;
7485;SDS011;3784;54.098;9.998;2023-06-24T06:35:33;366.87;;;351.50;;
7485;SDS011;3784;54.098;9.998;2023-06-24T06:38:00;357.60;;;342.40;;
7485;SDS011;3784;54.098;9.998;2023-06-24T06:40:26;334.07;;;320.07;;
7485;SDS011;3784;54.098;9.998;2023-06-24T06:42:54;332.83;;;318.87;;
7485;SDS011;3784;54.098;9.998;2023-06-24T06:45:21;369.03;;;352.63;;
7485;SDS011;3784;54.098;9.998;2023-06-24T06:47:48;288.23;;;276.13;;
7485;SDS011;3784;54.098;9.998;2023-06-24T06:50:15;279.20;;;267.60;;
7485;SDS011;3784;54.098;9.998;2023-06-24T06:52:42;274.97;;;263.53;;
7485;SDS011;3784;54.098;9.998;2023-06-24T06:55:09;217.93;;;208.90;;
7485;SDS011;3784;54.098;9.998;2023-06-24T06:57:35;208.97;;;200.13;;
7485;SDS011;3784;54.098;9.998;2023-06-24T07:00:02;196.17;;;187.87;;
7485;SDS011;3784;54.098;9.998;2023-06-24T07:02:29;201.53;;;193.23;;
7485;SDS011;3784;54.098;9.998;2023-06-24T07:04:56;178.63;;;171.13;;
7485;SDS011;3784;54.098;9.998;2023-06-24T07:07:22;180.57;;;172.87;;
7485;SDS011;3784;54.098;9.998;2023-06-24T07:09:49;149.03;;;142.73;;
7485;SDS011;3784;54.098;9.998;2023-06-24T07:12:15;156.07;;;149.40;;
7485;SDS011;3784;54.098;9.998;2023-06-24T07:14:41;128.77;;;123.17;;
7485;SDS011;3784;54.098;9.998;2023-06-24T07:17:08;110.43;;;105.63;;
7485;SDS011;3784;54.098;9.998;2023-06-24T07:19:34;82.57;;;78.87;;
7485;SDS011;3784;54.098;9.998;2023-06-24T07:22:00;91.73;;;87.73;;
7485;SDS011;3784;54.098;9.998;2023-06-24T07:24:27;87.47;;;83.67;;
7485;SDS011;3784;54.098;9.998;2023-06-24T07:26:53;70.87;;;67.57;;
7485;SDS011;3784;54.098;9.998;2023-06-24T07:29:20;63.50;;;60.50;;
7485;SDS011;3784;54.098;9.998;2023-06-24T07:31:46;86.87;;;82.80;;
7485;SDS011;3784;54.098;9.998;2023-06-24T07:34:13;75.77;;;72.37;;
7485;SDS011;3784;54.098;9.998;2023-06-24T07:36:39;77.13;;;73.50;;
7485;SDS011;3784;54.098;9.998;2023-06-24T07:39:06;81.20;;;77.47;;
7485;SDS011;3784;54.098;9.998;2023-06-24T07:41:32;63.80;;;60.73;;
7485;SDS011;3784;54.098;9.998;2023-06-24T07:43:59;27.63;;;26.13;;
7485;SDS011;3784;54.098;9.998;2023-06-24T07:46:25;23.10;;;21.80;;
7485;SDS011;3784;54.098;9.998;2023-06-24T07:48:54;30.10;;;28.53;;
7485;SDS011;3784;54.098;9.998;2023-06-24T07:51:20;17.73;;;16.40;;
7485;SDS011;3784;54.098;9.998;2023-06-24T07:53:46;48.57;;;46.30;;
7485;SDS011;3784;54.098;9.998;2023-06-24T07:56:13;19.43;;;18.30;;
7485;SDS011;3784;54.098;9.998;2023-06-24T07:58:39;45.43;;;43.17;;
7485;SDS011;3784;54.098;9.998;2023-06-24T08:01:05;28.80;;;27.30;;
7485;SDS011;3784;54.098;9.998;2023-06-24T08:03:33;26.90;;;25.53;;
7485;SDS011;3784;54.098;9.998;2023-06-24T08:06:00;13.40;;;12.67;;
7485;SDS011;3784;54.098;9.998;2023-06-24T08:08:26;16.07;;;14.87;;
7485;SDS011;3784;54.098;9.998;2023-06-24T08:10:52;14.20;;;13.33;;
7485;SDS011;3784;54.098;9.998;2023-06-24T08:13:19;13.70;;;12.77;;
7485;SDS011;3784;54.098;9.998;2023-06-24T08:15:45;14.70;;;13.80;;
7485;SDS011;3784;54.098;9.998;2023-06-24T08:18:12;15.27;;;14.30;;
7485;SDS011;3784;54.098;9.998;2023-06-24T08:20:38;14.53;;;13.63;;
7485;SDS011;3784;54.098;9.998;2023-06-24T08:23:05;14.60;;;13.83;;
7485;SDS011;3784;54.098;9.998;2023-06-24T08:25:31;16.73;;;15.73;;
7485;SDS011;3784;54.098;9.998;2023-06-24T08:27:58;22.70;;;21.53;;
7485;SDS011;3784;54.098;9.998;2023-06-24T08:30:24;29.07;;;27.67;;
7485;SDS011;3784;54.098;9.998;2023-06-24T08:32:51;26.20;;;24.83;;
7485;SDS011;3784;54.098;9.998;2023-06-24T08:35:17;18.43;;;17.53;;
7485;SDS011;3784;54.098;9.998;2023-06-24T08:37:44;18.70;;;17.63;;
7485;SDS011;3784;54.098;9.998;2023-06-24T08:40:10;17.17;;;16.27;;
7485;SDS011;3784;54.098;9.998;2023-06-24T08:42:37;15.30;;;14.40;;
7485;SDS011;3784;54.098;9.998;2023-06-24T08:45:04;18.77;;;17.83;;
7485;SDS011;3784;54.098;9.998;2023-06-24T08:47:30;13.17;;;12.37;;
7485;SDS011;3784;54.098;9.998;2023-06-24T08:50:12;13.90;;;13.00;;
7485;SDS011;3784;54.098;9.998;2023-06-24T08:52:43;13.10;;;12.20;;
7485;SDS011;3784;54.098;9.998;2023-06-24T08:55:12;13.37;;;12.57;;
7485;SDS011;3784;54.098;9.998;2023-06-24T08:57:40;12.23;;;11.63;;
7485;SDS011;3784;54.098;9.998;2023-06-24T09:00:06;13.33;;;12.13;;
7485;SDS011;3784;54.098;9.998;2023-06-24T09:02:37;13.77;;;12.97;;
7485;SDS011;3784;54.098;9.998;2023-06-24T09:05:05;13.60;;;12.80;;
7485;SDS011;3784;54.098;9.998;2023-06-24T09:07:32;19.30;;;18.17;;
7485;SDS011;3784;54.098;9.998;2023-06-24T09:09:58;19.77;;;18.57;;
7485;SDS011;3784;54.098;9.998;2023-06-24T09:12:26;15.47;;;14.43;;
7485;SDS011;3784;54.098;9.998;2023-06-24T09:14:53;12.27;;;11.37;;
7485;SDS011;3784;54.098;9.998;2023-06-24T09:17:19;13.13;;;12.23;;
7485;SDS011;3784;54.098;9.998;2023-06-24T09:19:49;12.80;;;12.00;;
7485;SDS011;3784;54.098;9.998;2023-06-24T09:22:16;12.73;;;11.73;;
7485;SDS011;3784;54.098;9.998;2023-06-24T09:24:45;15.10;;;14.00;;
7485;SDS011;3784;54.098;9.998;2023-06-24T09:27:13;17.83;;;16.63;;
7485;SDS011;3784;54.098;9.998;2023-06-24T09:29:41;25.00;;;23.50;;
7485;SDS011;3784;54.098;9.998;2023-06-24T09:32:08;20.23;;;19.10;;
7485;SDS011;3784;54.098;9.998;2023-06-24T09:34:35;16.23;;;15.27;;
7485;SDS011;3784;54.098;9.998;2023-06-24T09:37:01;14.17;;;13.43;;
7485;SDS011;3784;54.098;9.998;2023-06-24T09:39:28;16.33;;;15.20;;
7485;SDS011;3784;54.098;9.998;2023-06-24T09:42:01;14.63;;;13.63;;
7485;SDS011;3784;54.098;9.998;2023-06-24T09:44:28;15.73;;;14.47;;
7485;SDS011;3784;54.098;9.998;2023-06-24T09:46:55;22.00;;;20.80;;
7485;SDS011;3784;54.098;9.998;2023-06-24T09:49:22;16.90;;;16.00;;
7485;SDS011;3784;54.098;9.998;2023-06-24T09:51:49;14.17;;;13.17;;
7485;SDS011;3784;54.098;9.998;2023-06-24T09:54:21;16.00;;;15.20;;
7485;SDS011;3784;54.098;9.998;2023-06-24T09:56:49;17.73;;;16.73;;
7485;SDS011;3784;54.098;9.998;2023-06-24T09:59:17;19.23;;;18.23;;
7485;SDS011;3784;54.098;9.998;2023-06-24T10:01:48;14.80;;;14.00;;
7485;SDS011;3784;54.098;9.998;2023-06-24T10:04:16;13.43;;;12.53;;
7485;SDS011;3784;54.098;9.998;2023-06-24T10:06:44;13.00;;;12.20;;
7485;SDS011;3784;54.098;9.998;2023-06-24T10:09:10;12.97;;;11.93;;
7485;SDS011;3784;54.098;9.998;2023-06-24T10:11:43;13.40;;;12.43;;
7485;SDS011;3784;54.098;9.998;2023-06-24T10:14:13;12.17;;;11.27;;
7485;SDS011;3784;54.098;9.998;2023-06-24T10:16:41;10.37;;;9.77;;
7485;SDS011;3784;54.098;9.998;2023-06-24T10:19:08;12.30;;;11.50;;
7485;SDS011;3784;54.098;9.998;2023-06-24T10:21:53;13.50;;;12.60;;
7485;SDS011;3784;54.098;9.998;2023-06-24T10:24:29;17.50;;;16.40;;
7485;SDS011;3784;54.098;9.998;2023-06-24T10:27:04;17.63;;;16.63;;
7485;SDS011;3784;54.098;9.998;2023-06-24T10:29:35;18.07;;;16.90;;
7485;SDS011;3784;54.098;9.998;2023-06-24T10:32:08;14.90;;;14.00;;
7485;SDS011;3784;54.098;9.998;2023-06-24T10:39:51;24.40;;;22.77;;
7485;SDS011;3784;54.098;9.998;2023-06-24T10:45:01;16.03;;;15.13;;
7485;SDS011;3784;54.098;9.998;2023-06-24T10:47:37;17.97;;;16.87;;
7485;SDS011;3784;54.098;9.998;2023-06-24T10:50:06;20.60;;;19.37;;
7485;SDS011;3784;54.098;9.998;2023-06-24T10:52:36;22.20;;;20.83;;
7485;SDS011;3784;54.098;9.998;2023-06-24T10:55:18;20.30;;;19.03;;
7485;SDS011;3784;54.098;9.998;2023-06-24T10:57:44;19.73;;;18.63;;
7485;SDS011;3784;54.098;9.998;2023-06-24T11:00:12;17.97;;;16.97;;
7485;SDS011;3784;54.098;9.998;2023-06-24T11:02:39;20.97;;;19.83;;
7485;SDS011;3784;54.098;9.998;2023-06-24T11:05:05;16.23;;;15.33;;
7485;SDS011;3784;54.098;9.998;2023-06-24T11:07:36;20.43;;;19.10;;
7485;SDS011;3784;54.098;9.998;2023-06-24T11:10:04;17.27;;;16.17;;
7485;SDS011;3784;54.098;9.998;2023-06-24T11:12:36;14.70;;;13.87;;
7485;SDS011;3784;54.098;9.998;2023-06-24T11:15:04;16.80;;;15.83;;
7485;SDS011;3784;54.098;9.998;2023-06-24T11:17:35;15.73;;;14.73;;
7485;SDS011;3784;54.098;9.998;2023-06-24T11:20:06;14.53;;;13.53;;
7485;SDS011;3784;54.098;9.998;2023-06-24T11:22:33;13.00;;;12.03;;
7485;SDS011;3784;54.098;9.998;2023-06-24T11:25:00;13.20;;;12.37;;
7485;SDS011;3784;54.098;9.998;2023-06-24T11:27:27;14.60;;;13.80;;
7485;SDS011;3784;54.098;9.998;2023-06-24T11:29:54;14.00;;;13.20;;
7485;SDS011;3784;54.098;9.998;2023-06-24T11:32:24;14.77;;;13.87;;
7485;SDS011;3784;54.098;9.998;2023-06-24T11:34:51;12.87;;;12.17;;
7485;SDS011;3784;54.098;9.998;2023-06-24T11:37:17;11.30;;;10.67;;
7485;SDS011;3784;54.098;9.998;2023-06-24T11:39:44;11.00;;;10.17;;
7485;SDS011;3784;54.098;9.998;2023-06-24T11:42:11;11.00;;;10.27;;
7485;SDS011;3784;54.098;9.998;2023-06-24T11:44:41;11.10;;;10.40;;
7485;SDS011;3784;54.098;9.998;2023-06-24T11:47:11;14.63;;;13.63;;
7485;SDS011;3784;54.098;9.998;2023-06-24T11:49:51;13.37;;;12.57;;
7485;SDS011;3784;54.098;9.998;2023-06-24T11:52:19;13.77;;;12.97;;
7485;SDS011;3784;54.098;9.998;2023-06-24T11:54:55;12.80;;;12.10;;
7485;SDS011;3784;54.098;9.998;2023-06-24T11:57:21;11.53;;;10.83;;
7485;SDS011;3784;54.098;9.998;2023-06-24T12:00:25;14.27;;;13.47;;
7485;SDS011;3784;54.098;9.998;2023-06-24T12:02:57;13.20;;;12.40;;
7485;SDS011;3784;54.098;9.998;2023-06-24T12:05:32;16.57;;;15.60;;
7485;SDS011;3784;54.098;9.998;2023-06-24T12:08:02;15.47;;;14.60;;
7485;SDS011;3784;54.098;9.998;2023-06-24T12:10:30;22.63;;;21.53;;
7485;SDS011;3784;54.098;9.998;2023-06-24T12:13:03;16.07;;;15.17;;
7485;SDS011;3784;54.098;9.998;2023-06-24T12:15:37;19.73;;;18.63;;
7485;SDS011;3784;54.098;9.998;2023-06-24T12:18:05;25.23;;;24.03;;
7485;SDS011;3784;54.098;9.998;2023-06-24T12:20:32;20.83;;;19.67;;
7485;SDS011;3784;54.098;9.998;2023-06-24T12:23:05;23.47;;;22.23;;
7485;SDS011;3784;54.098;9.998;2023-06-24T12:25:33;23.27;;;22.07;;
7485;SDS011;3784;54.098;9.998;2023-06-24T12:28:00;17.73;;;16.43;;
7485;SDS011;3784;54.098;9.998;2023-06-24T12:30:29;18.13;;;17.23;;
7485;SDS011;3784;54.098;9.998;2023-06-24T12:32:56;13.90;;;13.00;;
7485;SDS011;3784;54.098;9.998;2023-06-24T12:35:24;16.77;;;15.67;;
7485;SDS011;3784;54.098;9.998;2023-06-24T12:38:00;16.20;;;15.30;;
7485;SDS011;3784;54.098;9.998;2023-06-24T12:40:27;14.50;;;13.50;;
7485;SDS011;3784;54.098;9.998;2023-06-24T12:42:54;12.60;;;11.70;;
7485;SDS011;3784;54.098;9.998;2023-06-24T12:45:22;12.50;;;11.67;;
7485;SDS011;3784;54.098;9.998;2023-06-24T12:47:51;13.03;;;12.23;;
7485;SDS011;3784;54.098;9.998;2023-06-24T12:50:19;9.87;;;9.27;;
7485;SDS011;3784;54.098;9.998;2023-06-24T12:52:47;11.27;;;10.50;;
7485;SDS011;3784;54.098;9.998;2023-06-24T12:55:14;11.57;;;10.57;;
7485;SDS011;3784;54.098;9.998;2023-06-24T12:57:43;10.87;;;10.07;;
7485;SDS011;3784;54.098;9.998;2023-06-24T13:00:11;10.83;;;10.10;;
7485;SDS011;3784;54.098;9.998;2023-06-24T13:02:38;10.83;;;10.03;;
7485;SDS011;3784;54.098;9.998;2023-06-24T13:05:05;11.37;;;10.57;;
7485;SDS011;3784;54.098;9.998;2023-06-24T13:07:32;10.40;;;9.60;;
7485;SDS011;3784;54.098;9.998;2023-06-24T13:09:59;9.90;;;9.10;;
7485;SDS011;3784;54.098;9.998;2023-06-24T13:12:27;10.80;;;10.07;;
7485;SDS011;3784;54.098;9.998;2023-06-24T13:14:55;10.63;;;10.03;;
7485;SDS011;3784;54.098;9.998;2023-06-24T13:17:24;12.03;;;11.33;;
7485;SDS011;3784;54.098;9.998;2023-06-24T13:19:53;12.73;;;11.93;;
7485;SDS011;3784;54.098;9.998;2023-06-24T13:22:20;13.27;;;12.50;;
7485;SDS011;3784;54.098;9.998;2023-06-24T13:24:50;15.70;;;14.80;;
7485;SDS011;3784;54.098;9.998;2023-06-24T13:27:17;16.23;;;15.33;;
7485;SDS011;3784;54.098;9.998;2023-06-24T13:29:45;17.07;;;16.17;;
7485;SDS011;3784;54.098;9.998;2023-06-24T13:32:12;12.47;;;11.67;;
7485;SDS011;3784;54.098;9.998;2023-06-24T13:34:38;12.07;;;11.27;;
7485;SDS011;3784;54.098;9.998;2023-06-24T13:37:05;12.70;;;11.93;;
7485;SDS011;3784;54.098;9.998;2023-06-24T13:39:34;12.90;;;12.03;;
7485;SDS011;3784;54.098;9.998;2023-06-24T13:42:03;12.57;;;11.77;;
7485;SDS011;3784;54.098;9.998;2023-06-24T13:44:30;10.43;;;9.80;;
7485;SDS011;3784;54.098;9.998;2023-06-24T13:46:57;9.50;;;8.90;;
7485;SDS011;3784;54.098;9.998;2023-06-24T13:49:28;10.60;;;9.90;;
7485;SDS011;3784;54.098;9.998;2023-06-24T13:51:56;10.33;;;9.63;;
7485;SDS011;3784;54.098;9.998;2023-06-24T13:54:23;10.80;;;9.97;;
7485;SDS011;3784;54.098;9.998;2023-06-24T13:56:53;10.77;;;9.97;;
7485;SDS011;3784;54.098;9.998;2023-06-24T13:59:20;9.47;;;8.87;;
7485;SDS011;3784;54.098;9.998;2023-06-24T14:01:46;11.43;;;10.63;;
7485;SDS011;3784;54.098;9.998;2023-06-24T14:04:13;11.97;;;11.27;;
7485;SDS011;3784;54.098;9.998;2023-06-24T14:06:40;12.83;;;12.03;;
7485;SDS011;3784;54.098;9.998;2023-06-24T14:09:07;12.60;;;12.00;;
7485;SDS011;3784;54.098;9.998;2023-06-24T14:11:34;10.53;;;9.93;;
7485;SDS011;3784;54.098;9.998;2023-06-24T14:14:00;12.23;;;11.53;;
7485;SDS011;3784;54.098;9.998;2023-06-24T14:16:26;16.67;;;15.63;;
7485;SDS011;3784;54.098;9.998;2023-06-24T14:18:53;11.80;;;11.13;;
7485;SDS011;3784;54.098;9.998;2023-06-24T14:21:19;15.80;;;14.90;;
7485;SDS011;3784;54.098;9.998;2023-06-24T14:23:46;12.30;;;11.60;;
7485;SDS011;3784;54.098;9.998;2023-06-24T14:26:13;11.43;;;10.63;;
7485;SDS011;3784;54.098;9.998;2023-06-24T14:28:39;11.77;;;11.07;;
7485;SDS011;3784;54.098;9.998;2023-06-24T14:31:06;11.43;;;10.83;;
7485;SDS011;3784;54.098;9.998;2023-06-24T14:33:32;12.77;;;12.07;;
7485;SDS011;3784;54.098;9.998;2023-06-24T14:35:59;26.50;;;23.83;;
7485;SDS011;3784;54.098;9.998;2023-06-24T14:38:25;14.10;;;13.27;;
7485;SDS011;3784;54.098;9.998;2023-06-24T14:40:54;13.30;;;12.50;;
7485;SDS011;3784;54.098;9.998;2023-06-24T14:43:23;10.93;;;10.27;;
7485;SDS011;3784;54.098;9.998;2023-06-24T14:45:49;17.00;;;15.80;;
7485;SDS011;3784;54.098;9.998;2023-06-24T14:48:15;22.80;;;20.87;;
7485;SDS011;3784;54.098;9.998;2023-06-24T14:50:42;10.73;;;10.13;;
7485;SDS011;3784;54.098;9.998;2023-06-24T14:53:08;10.90;;;10.20;;
7485;SDS011;3784;54.098;9.998;2023-06-24T14:55:35;10.30;;;9.60;;